Time;durP1;ratioP1;P1;durP2;ratioP2;P2;SDS_P1;SDS_P2;PMS_P1;PMS_P2;Temp;Humidity;BMP_temperature;BMP_pressure;BME280_temperature;BME280_humidity;BME280_pressure;Samples;Min_cycle;Max_cycle;Signal;HPM_P1;HPM_P2
2022/11/14 00:01:56;;;;;;;;;;;14.80;93.30;;;;;;5111962;28;19924;-65
2022/11/14 00:04:22;;;;;;;;;;;14.70;93.30;;;;;;5113930;28;19931;-67
2022/11/14 00:06:47;;;;;;;;;;;14.70;93.30;;;;;;5114073;28;20022;-68
2022/11/14 00:09:13;;;;;;;;;;;14.50;93.20;;;;;;5114232;28;19932;-67
2022/11/14 00:11:39;;;;;;;;;;;14.80;93.30;;;;;;5079977;28;20409;-67
2022/11/14 00:14:05;;;;;;;;;;;14.60;93.30;;;;;;5113571;28;19923;-66
2022/11/14 00:16:30;;;;;;;;;;;14.60;93.20;;;;;;5113176;28;19931;-66
2022/11/14 00:18:56;;;;;;;;;;;14.80;93.30;;;;;;5114374;28;20018;-67
2022/11/14 00:21:22;;;;;;;;;;;14.70;93.20;;;;;;5114827;28;20388;-66
2022/11/14 00:23:47;;;;;;;;;;;14.70;93.20;;;;;;5113140;28;19924;-67
2022/11/14 00:26:13;;;;;;;;;;;14.70;93.20;;;;;;5113157;28;20301;-66
2022/11/14 00:28:38;;;;;;;;;;;14.80;93.30;;;;;;5113404;28;19930;-67
2022/11/14 00:31:04;;;;;;;;;;;14.90;93.30;;;;;;5114098;28;19970;-70
2022/11/14 00:33:30;;;;;;;;;;;14.70;93.30;;;;;;5114572;28;19955;-67
2022/11/14 00:35:56;;;;;;;;;;;14.80;93.20;;;;;;5110496;28;19946;-66
2022/11/14 00:38:21;;;;;;;;;;;14.80;93.20;;;;;;5114614;28;19924;-65
2022/11/14 00:40:47;;;;;;;;;;;14.80;93.20;;;;;;5112712;28;19924;-66
2022/11/14 00:43:12;;;;;;;;;;;14.60;93.10;;;;;;5114348;28;20289;-68
2022/11/14 00:45:38;;;;;;;;;;;14.90;93.20;;;;;;5113497;28;19924;-66
2022/11/14 00:48:04;;;;;;;;;;;14.90;93.20;;;;;;5114143;28;19923;-66
2022/11/14 00:50:29;;;;;;;;;;;15.00;93.20;;;;;;5111807;28;19982;-71
2022/11/14 00:52:55;;;;;;;;;;;14.90;93.20;;;;;;5111704;28;19924;-67
2022/11/14 00:55:21;;;;;;;;;;;14.90;93.10;;;;;;5091139;28;20373;-68
2022/11/14 00:57:47;;;;;;;;;;;;;;;;;;5112458;28;20445;-70
2022/11/14 01:00:12;;;;;;;;;;;14.80;93.10;;;;;;5111922;28;20070;-67
2022/11/14 01:02:38;;;;;;;;;;;14.80;93.10;;;;;;5095125;28;19936;-69
2022/11/14 01:05:04;;;;;;;;;;;14.60;93.10;;;;;;5113587;28;19931;-69
2022/11/14 01:07:29;;;;;;;;;;;14.70;93.20;;;;;;5093302;28;19920;-65
2022/11/14 01:09:55;;;;;;;;;;;14.70;93.20;;;;;;5112770;28;19930;-66
2022/11/14 01:12:21;;;;;;;;;;;14.70;93.20;;;;;;5111899;28;19982;-68
2022/11/14 01:14:46;;;;;;;;;;;14.80;93.20;;;;;;5112745;28;19924;-67
2022/11/14 01:17:12;;;;;;;;;;;14.80;93.20;;;;;;5111975;28;19924;-69
2022/11/14 01:19:38;;;;;;;;;;;14.90;93.30;;;;;;5113665;28;19919;-68
2022/11/14 01:22:03;;;;;;;;;;;14.80;93.30;;;;;;5112684;28;19979;-67
2022/11/14 01:24:30;;;;;;;;;;;14.70;93.20;;;;;;5113352;28;20320;-66
2022/11/14 01:26:56;;;;;;;;;;;14.70;93.20;;;;;;5112340;28;20338;-66
2022/11/14 01:29:21;;;;;;;;;;;14.90;93.30;;;;;;5086453;28;19924;-66
2022/11/14 01:31:47;;;;;;;;;;;14.80;93.20;;;;;;5107887;28;19942;-68
2022/11/14 01:34:13;;;;;;;;;;;14.90;93.30;;;;;;5112437;28;19928;-67
2022/11/14 01:36:38;;;;;;;;;;;14.90;93.30;;;;;;5112766;28;19924;-66
2022/11/14 01:39:04;;;;;;;;;;;14.70;93.30;;;;;;5113222;28;19999;-65
2022/11/14 01:41:29;;;;;;;;;;;14.60;93.20;;;;;;5112734;28;20016;-65
2022/11/14 01:43:55;;;;;;;;;;;;;;;;;;5113342;28;19924;-69
2022/11/14 01:46:31;;;;;;;;;;;15.00;93.30;;;;;;5113035;28;19923;-69
2022/11/14 01:48:58;;;;;;;;;;;15.10;93.30;;;;;;5111442;28;19930;-66
2022/11/14 01:51:31;;;;;;;;;;;15.10;93.30;;;;;;5112999;28;19931;-66
2022/11/14 01:53:58;;;;;;;;;;;14.90;93.20;;;;;;5111920;28;19923;-68
2022/11/14 01:56:25;;;;;;;;;;;14.80;93.20;;;;;;5095998;28;20018;-70
2022/11/14 01:58:53;;;;;;;;;;;15.10;93.20;;;;;;5110643;28;19924;-66
2022/11/14 02:01:18;;;;;;;;;;;14.80;93.10;;;;;;5102284;28;20296;-67
2022/11/14 02:03:45;;;;;;;;;;;15.00;93.20;;;;;;5112737;28;19923;-68
2022/11/14 02:06:12;;;;;;;;;;;14.90;93.20;;;;;;5112245;28;20335;-69
2022/11/14 02:08:37;;;;;;;;;;;14.80;93.20;;;;;;5100197;28;19931;-65
2022/11/14 02:11:03;;;;;;;;;;;14.80;93.20;;;;;;5111367;28;19928;-71
2022/11/14 02:13:29;;;;;;;;;;;14.90;93.30;;;;;;5112933;28;19920;-66
2022/11/14 02:15:54;;;;;;;;;;;14.80;93.20;;;;;;5111774;28;19932;-66
2022/11/14 02:18:20;;;;;;;;;;;14.70;93.20;;;;;;5111455;28;19924;-66
2022/11/14 02:20:45;;;;;;;;;;;14.90;93.30;;;;;;5111431;28;19931;-68
2022/11/14 02:23:11;;;;;;;;;;;;;;;;;;5113105;28;19970;-68
2022/11/14 02:25:37;;;;;;;;;;;14.60;93.20;;;;;;5111077;28;20356;-67
2022/11/14 02:28:03;;;;;;;;;;;14.90;93.30;;;;;;5111813;28;19981;-67
2022/11/14 02:30:29;;;;;;;;;;;14.80;93.30;;;;;;5094571;28;19935;-70
2022/11/14 02:32:54;;;;;;;;;;;14.60;93.30;;;;;;5111753;28;19928;-65
2022/11/14 02:35:20;;;;;;;;;;;14.60;93.30;;;;;;5111424;28;19924;-66
2022/11/14 02:37:45;;;;;;;;;;;15.00;93.30;;;;;;5110114;28;20297;-67
2022/11/14 02:40:11;;;;;;;;;;;15.10;93.40;;;;;;5112119;28;19928;-65
2022/11/14 02:42:37;;;;;;;;;;;14.80;93.30;;;;;;5111779;28;19927;-67
2022/11/14 02:45:03;;;;;;;;;;;14.90;93.30;;;;;;5110045;28;19934;-67
2022/11/14 02:47:28;;;;;;;;;;;14.90;93.30;;;;;;5073355;28;19931;-66
2022/11/14 02:49:54;;;;;;;;;;;14.90;93.00;;;;;;5104912;28;19931;-66
2022/11/14 02:52:19;;;;;;;;;;;14.90;93.20;;;;;;5107646;28;20429;-66
2022/11/14 02:54:45;;;;;;;;;;;14.80;93.20;;;;;;5111797;28;19963;-66
2022/11/14 02:57:11;;;;;;;;;;;;;;;;;;5111341;28;19931;-68
2022/11/14 02:59:37;;;;;;;;;;;15.00;93.30;;;;;;5110647;28;19923;-67
2022/11/14 03:02:02;;;;;;;;;;;14.90;93.20;;;;;;5112461;28;20432;-67
2022/11/14 03:04:28;;;;;;;;;;;14.90;93.20;;;;;;5115567;28;20061;-71
2022/11/14 03:06:54;;;;;;;;;;;14.70;93.20;;;;;;5084838;28;20350;-66
2022/11/14 03:09:19;;;;;;;;;;;14.90;93.20;;;;;;5094991;28;19927;-67
2022/11/14 03:11:45;;;;;;;;;;;14.90;93.20;;;;;;5108151;28;19930;-67
2022/11/14 03:14:11;;;;;;;;;;;14.70;93.20;;;;;;5098177;28;20250;-66
2022/11/14 03:16:37;;;;;;;;;;;14.70;93.20;;;;;;5115019;28;19938;-68
2022/11/14 03:19:02;;;;;;;;;;;14.50;93.10;;;;;;5116395;28;19935;-68
2022/11/14 03:21:28;;;;;;;;;;;14.70;93.20;;;;;;5115558;28;19942;-66
2022/11/14 03:23:53;;;;;;;;;;;14.60;93.10;;;;;;5114069;28;20008;-72
2022/11/14 03:26:19;;;;;;;;;;;14.60;93.00;;;;;;5114901;28;19978;-66
2022/11/14 03:28:45;;;;;;;;;;;14.60;93.20;;;;;;5115791;28;19963;-70
2022/11/14 03:31:11;;;;;;;;;;;14.60;93.20;;;;;;5116362;28;19969;-70
2022/11/14 03:33:37;;;;;;;;;;;14.50;93.10;;;;;;5114032;28;20384;-70
2022/11/14 03:36:03;;;;;;;;;;;14.60;93.10;;;;;;5115916;28;19934;-67
2022/11/14 03:38:28;;;;;;;;;;;14.70;93.10;;;;;;5111671;27;19943;-65
2022/11/14 03:40:55;;;;;;;;;;;14.80;93.20;;;;;;5114730;28;20011;-67
2022/11/14 03:43:21;;;;;;;;;;;14.70;93.20;;;;;;5114544;28;20392;-69
2022/11/14 03:45:46;;;;;;;;;;;14.70;93.20;;;;;;5113243;28;19971;-67
2022/11/14 03:48:12;;;;;;;;;;;14.50;93.20;;;;;;5115091;28;19963;-66
2022/11/14 03:50:38;;;;;;;;;;;14.50;93.10;;;;;;5114155;28;19924;-67
2022/11/14 03:53:03;;;;;;;;;;;14.60;93.20;;;;;;5110593;28;19920;-65
2022/11/14 03:55:29;;;;;;;;;;;14.80;93.30;;;;;;5106080;28;19923;-66
2022/11/14 03:57:54;;;;;;;;;;;14.60;93.20;;;;;;5113437;28;19930;-66
2022/11/14 04:00:20;;;;;;;;;;;;;;;;;;5096751;28;19924;-71
2022/11/14 04:02:46;;;;;;;;;;;14.20;93.10;;;;;;5114653;28;19924;-66
2022/11/14 04:05:12;;;;;;;;;;;14.40;93.10;;;;;;5114492;28;19923;-66
2022/11/14 04:07:38;;;;;;;;;;;14.50;93.10;;;;;;5092846;28;19924;-66
2022/11/14 04:10:04;;;;;;;;;;;14.50;93.20;;;;;;5113704;28;19977;-65
2022/11/14 04:12:29;;;;;;;;;;;14.50;93.20;;;;;;5114563;28;19924;-70
2022/11/14 04:14:55;;;;;;;;;;;14.50;93.20;;;;;;5114930;28;19924;-66
2022/11/14 04:17:20;;;;;;;;;;;14.20;93.10;;;;;;5092782;28;19931;-66
2022/11/14 04:19:46;;;;;;;;;;;;;;;;;;5114401;28;19923;-66
2022/11/14 04:22:12;;;;;;;;;;;14.60;93.20;;;;;;5115232;28;19971;-66
2022/11/14 04:24:38;;;;;;;;;;;14.60;93.10;;;;;;5093406;28;19974;-65
2022/11/14 04:27:03;;;;;;;;;;;14.40;93.10;;;;;;5111979;28;20230;-66
2022/11/14 04:29:29;;;;;;;;;;;14.40;92.80;;;;;;5107815;28;19985;-66
2022/11/14 04:31:54;;;;;;;;;;;14.40;93.10;;;;;;5112132;28;19931;-66
2022/11/14 04:34:20;;;;;;;;;;;14.50;93.10;;;;;;5114367;28;19923;-66
2022/11/14 04:36:46;;;;;;;;;;;14.20;93.00;;;;;;5112788;28;19919;-66
2022/11/14 04:39:11;;;;;;;;;;;14.60;93.20;;;;;;5112985;28;19924;-65
2022/11/14 04:41:37;;;;;;;;;;;14.60;93.20;;;;;;5113726;28;19924;-68
2022/11/14 04:44:02;;;;;;;;;;;14.70;93.20;;;;;;5113264;28;20014;-66
2022/11/14 04:46:28;;;;;;;;;;;14.50;93.20;;;;;;5114374;28;19923;-66
2022/11/14 04:48:54;;;;;;;;;;;14.40;93.10;;;;;;5112111;28;19985;-66
2022/11/14 04:51:19;;;;;;;;;;;14.30;93.00;;;;;;5115080;28;20020;-70
2022/11/14 04:53:45;;;;;;;;;;;14.30;93.00;;;;;;5112218;28;19946;-66
2022/11/14 04:56:10;;;;;;;;;;;14.50;93.00;;;;;;5114389;28;19969;-66
2022/11/14 04:58:36;;;;;;;;;;;14.40;93.00;;;;;;5112149;28;20274;-67
2022/11/14 05:01:08;;;;;;;;;;;14.20;92.90;;;;;;5113529;28;20381;-67
2022/11/14 05:03:34;;;;;;;;;;;14.30;93.00;;;;;;5113849;28;20352;-67
2022/11/14 05:06:00;;;;;;;;;;;14.20;93.00;;;;;;5114593;28;19962;-67
2022/11/14 05:08:25;;;;;;;;;;;14.40;93.00;;;;;;5109547;28;19927;-66
2022/11/14 05:10:51;;;;;;;;;;;14.40;93.00;;;;;;5110744;28;19924;-65
2022/11/14 05:13:16;;;;;;;;;;;14.20;92.90;;;;;;5114144;28;19919;-65
2022/11/14 05:15:42;;;;;;;;;;;14.30;92.90;;;;;;5113723;28;19931;-66
2022/11/14 05:18:08;;;;;;;;;;;14.40;93.00;;;;;;5113905;28;20365;-66
2022/11/14 05:20:33;;;;;;;;;;;14.40;92.90;;;;;;5110681;28;19924;-65
2022/11/14 05:22:59;;;;;;;;;;;14.30;92.90;;;;;;5112040;28;19977;-69
2022/11/14 05:25:24;;;;;;;;;;;14.20;92.90;;;;;;5114768;28;19927;-67
2022/11/14 05:27:50;;;;;;;;;;;14.20;92.90;;;;;;5112050;28;20011;-66
2022/11/14 05:30:16;;;;;;;;;;;14.10;92.70;;;;;;5092190;28;19932;-67
2022/11/14 05:32:41;;;;;;;;;;;14.20;92.90;;;;;;5095812;28;20373;-66
2022/11/14 05:35:07;;;;;;;;;;;14.30;93.00;;;;;;5112477;28;20301;-66
2022/11/14 05:37:33;;;;;;;;;;;14.20;92.90;;;;;;5111248;28;19927;-68
2022/11/14 05:39:59;;;;;;;;;;;14.30;92.90;;;;;;5096197;28;19947;-65
2022/11/14 05:42:26;;;;;;;;;;;14.30;92.90;;;;;;5107918;28;19932;-67
2022/11/14 05:44:51;;;;;;;;;;;14.20;92.80;;;;;;5112419;28;19931;-66
2022/11/14 05:47:17;;;;;;;;;;;14.30;92.90;;;;;;5112424;28;19928;-67
2022/11/14 05:49:42;;;;;;;;;;;14.60;93.00;;;;;;5110872;28;20327;-67
2022/11/14 05:52:08;;;;;;;;;;;14.20;92.80;;;;;;5106690;28;19930;-67
2022/11/14 05:54:34;;;;;;;;;;;14.10;92.80;;;;;;5110077;28;20373;-66
2022/11/14 05:56:59;;;;;;;;;;;14.30;92.90;;;;;;5110499;28;20007;-70
2022/11/14 05:59:25;;;;;;;;;;;14.10;92.80;;;;;;5112719;28;19923;-65
2022/11/14 06:01:50;;;;;;;;;;;14.50;92.80;;;;;;5110779;28;20030;-68
2022/11/14 06:04:16;;;;;;;;;;;;;;;;;;5094787;28;19930;-68
2022/11/14 06:06:42;;;;;;;;;;;14.30;92.80;;;;;;5112209;28;19971;-68
2022/11/14 06:09:08;;;;;;;;;;;14.40;92.80;;;;;;5111960;28;19970;-66
2022/11/14 06:11:33;;;;;;;;;;;14.40;92.80;;;;;;5113998;28;19931;-67
2022/11/14 06:13:59;;;;;;;;;;;14.10;92.80;;;;;;5111731;28;19924;-68
2022/11/14 06:16:25;;;;;;;;;;;14.00;92.70;;;;;;5086759;28;20332;-65
2022/11/14 06:18:53;;;;;;;;;;;14.00;92.70;;;;;;5105474;28;19968;-66
2022/11/14 06:21:19;;;;;;;;;;;14.10;92.70;;;;;;5112834;28;19928;-67
2022/11/14 06:23:45;;;;;;;;;;;14.30;92.70;;;;;;5092961;28;19931;-67
2022/11/14 06:26:14;;;;;;;;;;;14.30;92.70;;;;;;5113154;28;19928;-68
2022/11/14 06:28:39;;;;;;;;;;;14.40;92.70;;;;;;5112877;28;20266;-67
2022/11/14 06:31:05;;;;;;;;;;;14.30;92.70;;;;;;5112562;28;19977;-66
2022/11/14 06:33:31;;;;;;;;;;;;;;;;;;5110847;28;19919;-67
2022/11/14 06:36:00;;;;;;;;;;;14.20;92.70;;;;;;5112110;28;19923;-67
2022/11/14 06:38:26;;;;;;;;;;;14.20;92.60;;;;;;5097044;28;19931;-65
2022/11/14 06:40:52;;;;;;;;;;;14.00;92.60;;;;;;5116083;28;19927;-64
2022/11/14 06:43:17;;;;;;;;;;;14.20;92.60;;;;;;5113779;28;19924;-66
2022/11/14 06:45:43;;;;;;;;;;;14.20;92.60;;;;;;5116315;28;19976;-70
2022/11/14 06:48:09;;;;;;;;;;;14.20;92.60;;;;;;5116679;28;19924;-65
2022/11/14 06:50:35;;;;;;;;;;;;;;;;;;5113281;28;20338;-66
2022/11/14 06:53:00;;;;;;;;;;;14.50;92.70;;;;;;5114138;28;19924;-70
2022/11/14 06:55:26;;;;;;;;;;;14.50;92.70;;;;;;5113772;28;19924;-65
2022/11/14 06:57:53;;;;;;;;;;;;;;;;;;5115738;28;20412;-68
2022/11/14 07:00:19;;;;;;;;;;;14.40;92.70;;;;;;5115287;27;19923;-66
2022/11/14 07:02:46;;;;;;;;;;;14.20;92.60;;;;;;5114850;28;20391;-68
2022/11/14 07:05:12;;;;;;;;;;;14.50;92.40;;;;;;5075014;28;20322;-66
2022/11/14 07:07:37;;;;;;;;;;;14.20;92.60;;;;;;5113768;28;20019;-65
2022/11/14 07:10:03;;;;;;;;;;;14.20;92.60;;;;;;5116919;28;19945;-67
2022/11/14 07:12:29;;;;;;;;;;;14.20;92.60;;;;;;5115508;28;19965;-64
2022/11/14 07:14:55;;;;;;;;;;;14.10;92.60;;;;;;5115943;28;20348;-68
2022/11/14 07:17:20;;;;;;;;;;;14.20;92.60;;;;;;5113994;28;20014;-72
2022/11/14 07:19:46;;;;;;;;;;;14.40;92.60;;;;;;5114648;28;20045;-65
2022/11/14 07:22:12;;;;;;;;;;;14.20;92.60;;;;;;5116771;28;20293;-65
2022/11/14 07:24:37;;;;;;;;;;;14.40;92.70;;;;;;5114746;28;20435;-67
2022/11/14 07:27:07;;;;;;;;;;;13.90;92.50;;;;;;5114771;28;19932;-68
2022/11/14 07:29:33;;;;;;;;;;;14.20;92.60;;;;;;5105078;28;19951;-67
2022/11/14 07:31:58;;;;;;;;;;;14.30;92.60;;;;;;5114975;28;19924;-70
2022/11/14 07:34:24;;;;;;;;;;;;;;;;;;5112789;28;19924;-71
2022/11/14 07:36:50;;;;;;;;;;;14.10;92.40;;;;;;5108073;28;19930;-66
2022/11/14 07:39:16;;;;;;;;;;;14.10;92.40;;;;;;5113184;28;19924;-66
2022/11/14 07:41:42;;;;;;;;;;;14.30;92.50;;;;;;5114470;28;19928;-66
2022/11/14 07:44:08;;;;;;;;;;;;;;;;;;5115371;28;19969;-69
2022/11/14 07:46:34;;;;;;;;;;;;;;;;;;5114075;28;19924;-70
2022/11/14 07:48:59;;;;;;;;;;;14.00;92.50;;;;;;5114654;28;19923;-69
2022/11/14 07:51:25;;;;;;;;;;;14.20;92.50;;;;;;5114224;28;19931;-70
2022/11/14 07:53:52;;;;;;;;;;;;;;;;;;5109573;28;19930;-68
2022/11/14 07:56:19;;;;;;;;;;;14.20;92.50;;;;;;5112372;28;19931;-69
2022/11/14 07:58:44;;;;;;;;;;;14.20;92.60;;;;;;5113962;28;19924;-67
2022/11/14 08:01:10;;;;;;;;;;;14.20;92.60;;;;;;5114692;28;19930;-66
2022/11/14 08:03:36;;;;;;;;;;;14.50;92.70;;;;;;5114971;28;19924;-65
2022/11/14 08:06:05;;;;;;;;;;;14.30;92.70;;;;;;5114065;28;20018;-70
2022/11/14 08:08:31;;;;;;;;;;;;;;;;;;5114527;28;20032;-67
2022/11/14 08:10:58;;;;;;;;;;;;;;;;;;5112891;28;19949;-68
2022/11/14 08:13:23;;;;;;;;;;;14.80;92.80;;;;;;5113049;28;20002;-69
2022/11/14 08:15:49;;;;;;;;;;;14.60;92.70;;;;;;5116195;28;19982;-70
2022/11/14 08:18:15;;;;;;;;;;;14.70;92.70;;;;;;5115803;28;20044;-67
2022/11/14 08:20:40;;;;;;;;;;;14.50;92.60;;;;;;5113853;28;20401;-66
2022/11/14 08:23:06;;;;;;;;;;;14.60;92.60;;;;;;5114547;28;20335;-66
2022/11/14 08:25:32;;;;;;;;;;;14.60;92.60;;;;;;5114700;28;20365;-66
2022/11/14 08:27:57;;;;;;;;;;;14.80;92.60;;;;;;5114707;28;19927;-71
2022/11/14 08:30:23;;;;;;;;;;;14.50;92.40;;;;;;5110367;28;20288;-70
2022/11/14 08:32:49;;;;;;;;;;;14.60;92.50;;;;;;5114570;28;20022;-72
2022/11/14 08:35:15;;;;;;;;;;;14.60;92.40;;;;;;5109960;28;20278;-69
2022/11/14 08:37:41;;;;;;;;;;;;;;;;;;5115364;28;19931;-69
2022/11/14 08:40:07;;;;;;;;;;;14.70;92.40;;;;;;5107161;28;20299;-70
2022/11/14 08:42:33;;;;;;;;;;;14.50;92.30;;;;;;5105445;28;19974;-68
2022/11/14 08:44:59;;;;;;;;;;;;;;;;;;5114307;28;19955;-70
2022/11/14 08:47:24;;;;;;;;;;;14.50;92.30;;;;;;5114991;28;20401;-69
2022/11/14 08:49:50;;;;;;;;;;;14.70;92.10;;;;;;5112663;28;20014;-69
2022/11/14 08:52:16;;;;;;;;;;;14.30;92.20;;;;;;5114840;28;19971;-67
2022/11/14 08:54:42;;;;;;;;;;;;;;;;;;5114591;28;19927;-68
2022/11/14 08:57:07;;;;;;;;;;;14.40;92.10;;;;;;5106926;28;19924;-66
2022/11/14 08:59:33;;;;;;;;;;;14.50;92.10;;;;;;5107349;28;19977;-65
2022/11/14 09:01:59;;;;;;;;;;;;;;;;;;5105345;28;19924;-68
2022/11/14 09:04:25;;;;;;;;;;;14.60;92.00;;;;;;5107764;28;19939;-67
2022/11/14 09:06:51;;;;;;;;;;;14.50;92.10;;;;;;5108749;28;19998;-65
2022/11/14 09:09:16;;;;;;;;;;;14.40;92.10;;;;;;5110830;28;20045;-69
2022/11/14 09:11:42;;;;;;;;;;;14.40;92.10;;;;;;5105852;28;19963;-65
2022/11/14 09:14:08;;;;;;;;;;;14.30;92.20;;;;;;5108072;28;19924;-66
2022/11/14 09:16:33;;;;;;;;;;;14.30;92.20;;;;;;5115207;28;19930;-65
2022/11/14 09:18:59;;;;;;;;;;;14.40;92.20;;;;;;5114219;28;19924;-66
2022/11/14 09:21:25;;;;;;;;;;;14.50;92.20;;;;;;5095973;28;19997;-65
2022/11/14 09:23:51;;;;;;;;;;;14.40;92.20;;;;;;5091914;28;19928;-65
2022/11/14 09:26:19;;;;;;;;;;;14.60;92.20;;;;;;5108389;28;20419;-71
2022/11/14 09:28:45;;;;;;;;;;;14.40;92.20;;;;;;5114943;28;20278;-70
2022/11/14 09:31:11;;;;;;;;;;;14.40;92.10;;;;;;5113188;28;19977;-70
2022/11/14 09:33:37;;;;;;;;;;;14.50;92.10;;;;;;5114479;28;20372;-68
2022/11/14 09:36:03;;;;;;;;;;;14.60;92.10;;;;;;5113223;28;20022;-65
2022/11/14 09:38:29;;;;;;;;;;;14.30;92.10;;;;;;5095935;28;19932;-71
2022/11/14 09:41:04;;;;;;;;;;;14.60;92.10;;;;;;5112723;28;19924;-67
2022/11/14 09:43:39;;;;;;;;;;;14.30;92.00;;;;;;5111270;28;19969;-65
2022/11/14 09:46:10;;;;;;;;;;;14.60;92.10;;;;;;5113279;28;19946;-67
2022/11/14 09:48:36;;;;;;;;;;;14.40;92.00;;;;;;5092199;28;19990;-69
2022/11/14 09:51:15;;;;;;;;;;;14.40;92.10;;;;;;5110796;28;19935;-70
2022/11/14 09:53:44;;;;;;;;;;;14.70;92.10;;;;;;5110928;28;19931;-64
2022/11/14 09:56:11;;;;;;;;;;;14.90;92.20;;;;;;5105817;28;19927;-65
2022/11/14 09:58:37;;;;;;;;;;;;;;;;;;5095619;28;20404;-66
2022/11/14 10:01:04;;;;;;;;;;;14.70;92.00;;;;;;5112860;28;19928;-65
2022/11/14 10:03:30;;;;;;;;;;;14.80;92.00;;;;;;5095944;28;19927;-65
2022/11/14 10:06:17;;;;;;;;;;;14.40;91.90;;;;;;5114393;28;20019;-66
2022/11/14 10:08:46;;;;;;;;;;;14.60;92.00;;;;;;5113954;28;19948;-67
2022/11/14 10:11:28;;;;;;;;;;;14.60;92.00;;;;;;5114825;28;19931;-68
2022/11/14 10:14:13;;;;;;;;;;;14.60;92.10;;;;;;5100326;28;19923;-66
2022/11/14 10:16:42;;;;;;;;;;;14.80;92.10;;;;;;5117096;28;19923;-66
2022/11/14 10:19:29;;;;;;;;;;;14.50;92.10;;;;;;5109943;28;19924;-66
2022/11/14 10:22:07;;;;;;;;;;;14.60;92.10;;;;;;5097586;28;19924;-66
2022/11/14 10:24:38;;;;;;;;;;;14.60;92.00;;;;;;5096412;28;19928;-64
2022/11/14 10:27:04;;;;;;;;;;;14.70;92.00;;;;;;5096664;28;19924;-65
2022/11/14 10:29:50;;;;;;;;;;;14.60;92.00;;;;;;5096496;28;20327;-66
2022/11/14 10:32:29;;;;;;;;;;;14.70;91.90;;;;;;5113610;28;19973;-65
2022/11/14 10:35:01;;;;;;;;;;;15.20;92.10;;;;;;5096551;28;19972;-68
2022/11/14 10:37:36;;;;;;;;;;;15.00;92.00;;;;;;5096194;28;19924;-65
2022/11/14 10:40:21;;;;;;;;;;;14.90;92.00;;;;;;5062434;28;19928;-66
2022/11/14 10:42:54;;;;;;;;;;;14.80;92.00;;;;;;5095992;28;19924;-69
2022/11/14 10:45:22;;;;;;;;;;;15.00;92.00;;;;;;5097836;28;19930;-68
2022/11/14 10:47:50;;;;;;;;;;;15.00;92.00;;;;;;5113229;28;19931;-66
2022/11/14 10:50:15;;;;;;;;;;;15.10;92.00;;;;;;5101505;28;19938;-65
2022/11/14 10:52:41;;;;;;;;;;;15.10;92.10;;;;;;5097692;28;20014;-65
2022/11/14 10:55:14;;;;;;;;;;;15.10;92.00;;;;;;5097274;28;19935;-65
2022/11/14 10:57:39;;;;;;;;;;;15.00;92.00;;;;;;5096107;28;20338;-65
2022/11/14 11:00:15;;;;;;;;;;;15.30;92.00;;;;;;5111498;28;19924;-66
2022/11/14 11:03:01;;;;;;;;;;;15.30;92.00;;;;;;5116610;28;19963;-68
2022/11/14 11:05:28;;;;;;;;;;;15.10;91.90;;;;;;5115949;28;19924;-64
2022/11/14 11:13:35;;;;;;;;;;;15.40;91.90;;;;;;5081124;28;20446;-64
2022/11/14 11:16:02;;;;;;;;;;;15.40;91.60;;;;;;5096147;28;19924;-67
2022/11/14 11:18:29;;;;;;;;;;;15.10;91.60;;;;;;5115056;28;20011;-68
2022/11/14 11:21:14;;;;;;;;;;;15.20;91.60;;;;;;5098646;28;19970;-67
2022/11/14 11:23:50;;;;;;;;;;;15.20;91.50;;;;;;5115594;28;19924;-66
2022/11/14 11:26:15;;;;;;;;;;;15.50;91.60;;;;;;5096939;28;19966;-66
2022/11/14 11:28:41;;;;;;;;;;;15.30;91.60;;;;;;5116629;28;19974;-65
2022/11/14 11:31:07;;;;;;;;;;;15.30;91.60;;;;;;5117445;28;19928;-66
2022/11/14 11:33:34;;;;;;;;;;;15.20;91.60;;;;;;5115560;28;19931;-66
2022/11/14 11:36:00;;;;;;;;;;;15.30;91.60;;;;;;5114815;28;20331;-66
2022/11/14 11:38:27;;;;;;;;;;;15.40;91.40;;;;;;5116786;28;19931;-65
2022/11/14 11:41:16;;;;;;;;;;;15.40;91.20;;;;;;5098497;28;19934;-72
2022/11/14 11:43:43;;;;;;;;;;;15.30;91.20;;;;;;5086743;28;19924;-69
2022/11/14 11:46:09;;;;;;;;;;;;;;;;;;5079565;28;20357;-70
2022/11/14 11:48:38;;;;;;;;;;;15.30;91.20;;;;;;5114497;28;20026;-69
2022/11/14 11:51:04;;;;;;;;;;;15.50;91.30;;;;;;5098506;28;19924;-69
2022/11/14 11:53:33;;;;;;;;;;;15.50;91.00;;;;;;5115143;28;19970;-67
2022/11/14 11:56:00;;;;;;;;;;;15.60;91.30;;;;;;5109869;28;19924;-69
2022/11/14 11:58:35;;;;;;;;;;;15.50;91.30;;;;;;5113871;28;19923;-70
2022/11/14 12:01:01;;;;;;;;;;;15.40;91.30;;;;;;5097900;28;20002;-69
2022/11/14 12:03:27;;;;;;;;;;;15.80;91.30;;;;;;5114768;28;20031;-69
2022/11/14 12:05:55;;;;;;;;;;;15.70;91.30;;;;;;5131957;27;19924;-68
2022/11/14 12:08:34;;;;;;;;;;;15.60;91.30;;;;;;5097618;28;19928;-70
2022/11/14 12:11:00;;;;;;;;;;;;;;;;;;5097792;28;19924;-70
2022/11/14 12:13:26;;;;;;;;;;;15.70;91.20;;;;;;5114934;28;19931;-68
2022/11/14 12:15:58;;;;;;;;;;;16.00;91.30;;;;;;5114933;28;19927;-68
2022/11/14 12:18:36;;;;;;;;;;;15.80;91.30;;;;;;5093655;28;20007;-68
2022/11/14 12:21:05;;;;;;;;;;;16.00;91.30;;;;;;5077630;28;20418;-70
2022/11/14 12:23:33;;;;;;;;;;;15.70;91.20;;;;;;5077336;28;19986;-69
2022/11/14 12:26:01;;;;;;;;;;;15.50;91.10;;;;;;5095275;28;19931;-68
2022/11/14 12:28:46;;;;;;;;;;;15.80;91.20;;;;;;5103180;28;19930;-68
2022/11/14 12:31:12;;;;;;;;;;;15.60;91.00;;;;;;5114141;28;20368;-68
2022/11/14 12:33:56;;;;;;;;;;;15.70;91.20;;;;;;5113506;28;20006;-71
2022/11/14 12:36:26;;;;;;;;;;;15.80;91.20;;;;;;5094803;28;19980;-70
2022/11/14 12:38:52;;;;;;;;;;;15.60;91.20;;;;;;5111147;28;20334;-69
2022/11/14 12:41:25;;;;;;;;;;;15.60;91.30;;;;;;5114052;28;19924;-67
2022/11/14 12:43:51;;;;;;;;;;;16.00;91.40;;;;;;5115099;28;19924;-68
2022/11/14 12:46:16;;;;;;;;;;;15.60;91.30;;;;;;5115562;28;20266;-67
2022/11/14 12:48:43;;;;;;;;;;;15.80;91.30;;;;;;5115399;28;19927;-68
2022/11/14 12:51:38;;;;;;;;;;;15.50;91.30;;;;;;5115208;27;19953;-68
2022/11/14 12:54:03;;;;;;;;;;;15.60;91.30;;;;;;5096722;28;19923;-68
2022/11/14 12:56:29;;;;;;;;;;;15.50;91.30;;;;;;5113866;28;20304;-70
2022/11/14 12:59:01;;;;;;;;;;;15.50;91.30;;;;;;5099252;28;19923;-68
2022/11/14 13:01:30;;;;;;;;;;;15.40;91.20;;;;;;5089447;28;19977;-70
2022/11/14 13:04:05;;;;;;;;;;;15.40;91.30;;;;;;5093323;28;19924;-69
2022/11/14 13:06:42;;;;;;;;;;;15.50;91.30;;;;;;5104937;28;19930;-69
2022/11/14 13:09:10;;;;;;;;;;;15.50;91.40;;;;;;5096777;28;19936;-70
2022/11/14 13:22:39;;;;;;;;;;;15.50;91.50;;;;;;5113198;28;19924;-68
2022/11/14 13:25:15;;;;;;;;;;;15.40;91.50;;;;;;5096779;28;19924;-67
2022/11/14 13:27:41;;;;;;;;;;;15.60;91.50;;;;;;5096660;28;19946;-66
2022/11/14 13:30:07;;;;;;;;;;;15.20;91.40;;;;;;5113258;28;19919;-67
2022/11/14 13:32:41;;;;;;;;;;;15.50;91.60;;;;;;5113257;28;19997;-66
2022/11/14 13:35:10;;;;;;;;;;;15.50;91.60;;;;;;5113216;28;20010;-68
2022/11/14 13:37:42;;;;;;;;;;;15.30;91.50;;;;;;5113043;28;20023;-68
2022/11/14 13:40:27;;;;;;;;;;;15.30;91.50;;;;;;5112912;28;19923;-67
2022/11/14 13:42:53;;;;;;;;;;;15.40;91.60;;;;;;5112961;28;20393;-63
2022/11/14 13:45:41;;;;;;;;;;;15.30;91.50;;;;;;5113385;28;19931;-65
2022/11/14 13:48:10;;;;;;;;;;;15.30;91.40;;;;;;5096465;28;19931;-66
2022/11/14 13:50:36;;;;;;;;;;;15.50;91.40;;;;;;5112997;28;19997;-63
2022/11/14 13:53:02;;;;;;;;;;;15.40;91.50;;;;;;5113083;28;19927;-63
2022/11/14 13:55:46;;;;;;;;;;;15.20;91.30;;;;;;5113015;28;19924;-62
2022/11/14 13:58:11;;;;;;;;;;;15.40;91.40;;;;;;5105293;28;19935;-63
2022/11/14 14:00:46;;;;;;;;;;;15.10;91.30;;;;;;5093779;28;19924;-64
2022/11/14 14:03:14;;;;;;;;;;;;;;;;;;5098526;28;19932;-66
2022/11/14 14:06:02;;;;;;;;;;;15.30;91.30;;;;;;5111152;28;19923;-67
2022/11/14 14:08:34;;;;;;;;;;;15.40;91.50;;;;;;5113184;28;19923;-68
2022/11/14 14:11:38;;;;;;;;;;;15.30;91.50;;;;;;5112814;28;20393;-66
2022/11/14 14:14:04;;;;;;;;;;;;;;;;;;5025836;28;19925;-67
2022/11/14 14:16:30;;;;;;;;;;;15.20;91.50;;;;;;5015051;28;20416;-66
2022/11/14 14:19:13;;;;;;;;;;;14.90;91.40;;;;;;5015203;28;20020;-68
2022/11/14 14:21:39;;;;;;;;;;;15.10;91.50;;;;;;5014803;28;19979;-68
2022/11/14 14:24:05;;;;;;;;;;;;;;;;;;5014067;28;19957;-69
2022/11/14 14:26:54;;;;;;;;;;;15.10;91.50;;;;;;5015149;28;19925;-68
2022/11/14 14:29:19;;;;;;;;;;;15.20;91.50;;;;;;5014612;28;19932;-68
2022/11/14 14:31:45;;;;;;;;;;;;;;;;;;5014170;28;19925;-66
2022/11/14 14:34:25;;;;;;;;;;;15.20;91.50;;;;;;5013984;28;19929;-67
2022/11/14 14:36:54;;;;;;;;;;;15.30;91.50;;;;;;4998158;28;19925;-67
2022/11/14 14:39:20;;;;;;;;;;;15.00;91.40;;;;;;5014609;28;20015;-67
2022/11/14 14:41:46;;;;;;;;;;;15.20;91.50;;;;;;4998462;28;20406;-67
2022/11/14 14:44:12;;;;;;;;;;;;;;;;;;5013434;28;19930;-69
2022/11/14 14:46:38;;;;;;;;;;;15.20;91.50;;;;;;5106365;28;19923;-67